Latest Weather Observations for Narrandera Airport

IDN60801

Issued at 11:05 pm EDT Saturday 25 October 2014 (issued every 30 minutes, with the page automatically refreshed every 10 minutes)

About weather observations | Map of weather stations | Latest weather observations for NSW | Other Formats
Station Details ID: 074148 Name: NARRANDERA AIRPORT AWS Lat: -34.70 Lon: 146.51 Height: 145.0 m
Data from the previous 72 hours. | See also: Recent months for locations in New South Wales
Date/Time
EDT
Temp
°C
App
Temp
°C
Dew
Point
Rel
Hum
%
Delta-T
°C
Wind Press
QNH
hPa
Press
MSL
hPa
Rain
since 9 am
mm
Dir
 
Spd
km/h
Gust
km/h
Spd
kts
Gust
kts
25/11:00pm 25.1 21.2 9.4 37 8.6 SW 20 30 11 16 1010.6 1010.3 0.0
25/10:30pm 26.5 22.6 8.5 32 9.8 WSW 19 26 10 14 1010.3 1010.0 0.0
25/10:00pm 26.1 22.5 6.7 29 10.2 NW 15 20 8 11 1009.8 1009.5 0.0
25/09:30pm 26.1 24.8 6.2 28 10.4 N 2 7 1 4 1009.8 1009.5 0.0
25/09:00pm 26.0 24.6 7.1 30 10.0 S 4 7 2 4 1009.6 1009.3 0.0
25/08:30pm 27.8 23.5 7.1 27 11.1 N 19 22 10 12 1009.6 1009.3 0.0
25/08:00pm 27.1 23.7 7.5 29 10.6 N 15 20 8 11 1009.3 1009.0 0.0
25/07:30pm 30.2 26.7 7.4 24 12.4 N 15 17 8 9 1009.0 1008.7 0.0
25/07:00pm 31.4 27.0 6.5 21 13.5 N 19 28 10 15 1009.0 1008.7 0.0
25/06:30pm 32.7 30.0 7.5 21 13.9 NNE 11 17 6 9 1008.8 1008.5 0.0
25/06:00pm 32.4 29.9 8.0 22 13.6 SSW 11 17 6 9 1009.0 1008.7 0.0
25/05:40pm 31.2 25.9 10.0 27 12.1 SW 28 41 15 22 1009.3 1009.0 0.0
25/05:30pm 34.7 31.4 4.3 15 16.2 W 11 15 6 8 1009.3 1009.0 0.0
25/05:00pm 35.9 32.0 3.2 13 17.2 WSW 13 24 7 13 1008.9 1008.6 0.0
25/04:30pm 37.1 33.3 1.8 11 18.3 N 11 22 6 12 1008.9 1008.6 0.0
25/04:00pm 36.4 31.9 2.4 12 17.7 NW 15 24 8 13 1009.8 1009.5 0.0
25/03:30pm 36.8 31.8 1.5 11 18.2 NNW 17 22 9 12 1010.4 1010.1 0.0
25/03:00pm 37.0 31.7 1.7 11 18.3 NNW 19 26 10 14 1011.0 1010.8 0.0
25/02:30pm 36.6 32.4 1.4 11 18.1 NW 13 20 7 11 1011.8 1011.6 0.0
25/02:00pm 35.2 31.4 1.5 12 17.2 NW 11 30 6 16 1012.6 1012.3 0.0
25/01:30pm 34.2 30.0 1.9 13 16.5 NNW 13 28 7 15 1013.1 1012.8 0.0
25/01:00pm 34.0 29.6 2.8 14 16.1 N 15 26 8 14 1013.5 1013.2 0.0
25/12:30pm 34.6 30.9 2.2 13 16.6 NNE 11 17 6 9 1013.8 1013.5 0.0
25/12:00pm 34.4 31.6 2.0 13 16.6 E 6 17 3 9 1014.4 1014.1 0.0
25/11:30am 33.3 29.8 1.2 13 16.1 ENE 9 24 5 13 1014.9 1014.6 0.0
25/11:00am 32.8 28.5 0.8 13 15.9 NE 13 20 7 11 1015.2 1014.9 0.0
25/10:30am 31.1 27.1 0.5 14 14.9 ENE 11 15 6 8 1015.7 1015.4 0.0
25/10:00am 30.0 26.4 0.6 15 14.3 ENE 9 15 5 8 1015.9 1015.6 0.0
25/09:30am 29.0 26.0 2.3 18 13.3 ENE 7 13 4 7 1015.8 1015.5 0.0
25/08:30am 23.8 22.8 5.7 31 9.2 CALM 0 0 0 0 1015.9 1015.6 0.0
25/08:00am 21.5 20.8 7.0 39 7.5 CALM 0 0 0 0 1015.7 1015.4 0.0
25/07:30am 17.3 16.8 7.9 54 4.8 CALM 0 0 0 0 1015.5 1015.2 0.0
25/07:00am 13.9 12.9 7.4 65 3.2 SSE 2 6 1 3 1015.2 1014.9 0.0
25/06:30am 13.2 12.7 7.9 70 2.6 CALM 0 0 0 0 1015.1 1014.8 0.0
25/06:00am 13.1 12.4 7.1 67 2.9 WNW 0 0 0 0 1015.0 1014.7 0.0
25/05:30am 14.0 12.6 7.1 63 3.4 WNW 4 7 2 4 1014.8 1014.5 0.0
25/05:00am 13.9 13.3 7.2 64 3.3 CALM 0 0 0 0 1014.3 1014.0 0.0
25/04:30am 13.6 11.5 6.7 63 3.4 S 7 9 4 5 1014.3 1014.0 0.0
25/04:00am 13.5 12.5 5.7 59 3.7 CALM 0 0 0 0 1014.1 1013.8 0.0
25/03:30am 13.4 12.7 7.0 65 3.1 CALM 0 0 0 0 1014.2 1013.9 0.0
25/03:00am 12.9 12.2 7.1 68 2.8 CALM 0 0 0 0 1014.5 1014.2 0.0
25/02:30am 14.3 12.3 6.9 61 3.6 N 7 9 4 5 1014.4 1014.1 0.0
25/02:00am 14.7 14.1 7.5 62 3.6 CALM 0 0 0 0 1014.9 1014.6 0.0
25/01:30am 15.2 14.4 6.7 57 4.2 CALM 0 0 0 0 1014.9 1014.6 0.0
25/01:00am 14.9 14.4 7.7 62 3.6 CALM 0 0 0 0 1015.0 1014.7 0.0
25/12:30am 15.6 14.6 5.8 52 4.7 CALM 0 0 0 0 1015.1 1014.8 0.0
25/12:00am 16.1 15.2 6.0 51 4.9 SSE 0 0 0 0 1015.1 1014.8 0.0
 
Date/Time
EDT
Temp
°C
App
Temp
°C
Dew
Point
Rel
Hum
%
Delta-T
°C
Wind Press
QNH
hPa
Press
MSL
hPa
Rain
since 9 am
mm
Dir
 
Spd
km/h
Gust
km/h
Spd
kts
Gust
kts
24/11:30pm 16.5 15.7 6.6 52 4.9 CALM 0 0 0 0 1015.0 1014.7 0.0
24/11:00pm 17.1 16.3 6.6 50 5.2 CALM 0 0 0 0 1015.1 1014.8 0.0
24/10:30pm 18.4 17.6 6.3 45 6.0 CALM 0 0 0 0 1015.1 1014.8 0.0
24/10:00pm 18.2 16.0 6.4 46 5.9 N 7 9 4 5 1015.0 1014.7 0.0
24/09:30pm 19.4 18.5 6.2 42 6.6 CALM 0 0 0 0 1014.7 1014.4 0.0
24/09:00pm 21.6 20.4 4.7 33 8.3 CALM 0 0 0 0 1014.2 1013.9 0.0
24/08:30pm 25.5 22.5 4.0 25 10.8 W 9 9 5 5 1013.7 1013.4 0.0
24/08:00pm 26.5 23.8 3.7 23 11.4 W 7 9 4 5 1013.3 1013.0 0.0
24/07:30pm 27.7 24.1 2.7 20 12.4 W 11 13 6 7 1012.8 1012.5 0.0
24/07:00pm 29.4 25.6 1.8 17 13.6 W 11 19 6 10 1012.5 1012.2 0.0
24/06:30pm 30.1 24.7 1.5 16 14.1 WSW 19 28 10 15 1012.2 1012.0 0.0
24/06:00pm 31.0 25.8 2.3 16 14.5 WSW 19 28 10 15 1011.9 1011.7 0.0
24/05:30pm 31.5 25.3 4.3 18 14.2 W 26 39 14 21 1011.4 1011.2 0.0
24/05:00pm 32.5 26.8 5.1 18 14.6 WSW 24 39 13 21 1011.0 1010.8 0.0
24/04:30pm 33.8 27.4 5.4 17 15.3 W 28 39 15 21 1010.9 1010.7 0.0
24/04:00pm 33.3 28.0 5.0 17 15.1 SW 22 37 12 20 1010.9 1010.7 0.0
24/03:30pm 34.2 29.0 5.7 17 15.4 W 22 35 12 19 1010.9 1010.7 0.0
24/03:00pm 33.9 28.5 6.3 18 15.1 W 24 33 13 18 1011.2 1011.0 0.0
24/02:30pm 34.3 28.6 6.6 18 15.2 W 26 41 14 22 1011.5 1011.3 0.0
24/02:00pm 34.1 29.8 7.2 19 14.9 WNW 19 30 10 16 1011.8 1011.6 0.0
24/01:30pm 34.0 31.2 7.1 19 14.9 W 11 20 6 11 1012.0 1011.8 0.0
24/01:00pm 33.3 30.8 8.0 21 14.2 WNW 11 19 6 10 1012.4 1012.1 0.0
24/12:30pm 32.0 28.8 8.3 23 13.2 NW 15 20 8 11 1012.7 1012.4 0.0
24/12:00pm 32.2 28.0 8.4 23 13.3 NW 20 26 11 14 1013.1 1012.8 0.0
24/11:30am 30.5 25.8 7.7 24 12.5 NW 22 30 12 16 1013.4 1013.1 0.0
24/11:00am 30.5 25.6 8.3 25 12.3 N 24 30 13 16 1013.7 1013.4 0.0
24/10:30am 29.6 24.3 8.6 27 11.6 N 26 32 14 17 1013.9 1013.6 0.0
24/10:00am 28.7 24.4 9.4 30 10.8 N 22 28 12 15 1014.2 1013.9 0.0
24/09:30am 28.2 24.3 9.5 31 10.5 N 20 28 11 15 1014.3 1014.0 0.0
24/09:00am 26.8 22.3 8.7 32 9.9 N 22 28 12 15 1014.1 1013.8 0.2
24/08:30am 26.2 20.7 9.1 34 9.4 NNE 28 37 15 20 1014.2 1013.9 0.2
24/08:00am 24.6 21.3 9.7 39 8.2 NE 17 24 9 13 1014.4 1014.1 0.2
24/07:30am 22.2 19.7 9.7 45 6.8 E 13 17 7 9 1014.5 1014.2 0.2
24/07:00am 21.2 18.2 9.4 47 6.3 ENE 15 19 8 10 1014.4 1014.1 0.2
24/06:30am 21.5 18.2 9.4 46 6.5 NE 17 24 9 13 1014.2 1013.9 0.2
24/06:00am 20.9 17.6 9.5 48 6.1 ENE 17 22 9 12 1014.0 1013.7 0.2
24/05:30am 21.1 17.8 9.7 48 6.2 ENE 17 24 9 13 1013.9 1013.6 0.2
24/05:00am 22.2 18.9 9.4 44 6.9 ENE 17 24 9 13 1013.9 1013.6 0.2
24/04:30am 24.1 20.0 8.5 37 8.4 NNE 20 39 11 21 1013.2 1012.9 0.2
24/04:00am 22.9 19.5 9.3 42 7.4 ENE 17 28 9 15 1013.2 1012.9 0.2
24/03:30am 22.1 18.9 9.9 46 6.7 ENE 17 22 9 12 1013.7 1013.4 0.2
24/03:00am 22.6 19.6 9.4 43 7.2 ENE 15 22 8 12 1013.8 1013.5 0.2
24/02:30am 22.8 21.0 8.1 39 7.8 ESE 7 22 4 12 1014.0 1013.7 0.2
24/02:00am 23.8 20.9 8.2 37 8.3 ENE 13 22 7 12 1013.9 1013.6 0.2
24/01:30am 22.7 21.4 7.7 38 7.9 S 4 9 2 5 1014.1 1013.8 0.2
24/01:00am 24.5 22.0 8.0 35 8.8 ENE 11 19 6 10 1014.1 1013.8 0.2
24/12:30am 24.1 20.3 7.7 35 8.7 ESE 17 24 9 13 1014.1 1013.8 0.2
24/12:00am 25.3 23.8 7.0 31 9.6 ENE 4 13 2 7 1013.8 1013.5 0.2
 
Date/Time
EDT
Temp
°C
App
Temp
°C
Dew
Point
Rel
Hum
%
Delta-T
°C
Wind Press
QNH
hPa
Press
MSL
hPa
Rain
since 9 am
mm
Dir
 
Spd
km/h
Gust
km/h
Spd
kts
Gust
kts
23/11:30pm 27.5 23.2 6.8 27 11.0 N 19 24 10 13 1013.6 1013.3 0.2
23/11:00pm 26.8 24.1 7.3 29 10.4 N 11 13 6 7 1013.6 1013.3 0.2
23/10:30pm 24.5 23.7 6.7 32 9.3 CALM 0 0 0 0 1013.4 1013.1 0.2
23/10:00pm 26.7 23.5 6.7 28 10.6 NNE 13 15 7 8 1013.3 1013.0 0.2
23/09:30pm 28.5 24.5 6.6 25 11.7 N 17 20 9 11 1013.0 1012.7 0.2
23/09:00pm 31.9 26.7 5.4 19 14.1 N 22 33 12 18 1012.6 1012.3 0.2
23/08:30pm 27.2 25.3 7.6 29 10.6 NNW 7 11 4 6 1012.4 1012.1 0.2
23/08:00pm 28.0 26.0 7.3 27 11.1 N 7 9 4 5 1012.0 1011.8 0.2
23/07:30pm 30.2 27.1 5.5 21 13.1 NNW 11 13 6 7 1011.7 1011.5 0.2
23/07:00pm 32.0 28.5 5.5 19 14.2 N 13 17 7 9 1011.5 1011.3 0.2
23/06:30pm 34.3 29.9 4.9 16 15.7 N 17 22 9 12 1011.4 1011.2 0.2
23/06:00pm 35.0 30.0 4.5 15 16.3 NNW 20 28 11 15 1011.4 1011.2 0.2
23/05:30pm 35.8 32.2 5.1 15 16.6 NW 13 20 7 11 1011.7 1011.5 0.2
23/05:00pm 35.9 31.2 5.2 15 16.7 NW 19 28 10 15 1012.0 1011.8 0.2
23/04:30pm 35.7 30.2 4.1 14 16.8 N 22 28 12 15 1012.2 1012.0 0.2
23/04:00pm 35.5 30.0 3.9 14 16.8 NW 22 30 12 16 1012.6 1012.3 0.2
23/03:30pm 35.5 30.7 4.9 15 16.5 NW 19 32 10 17 1012.9 1012.6 0.2
23/03:00pm 35.8 32.2 5.1 15 16.6 N 13 32 7 17 1013.4 1013.1 0.2
23/02:30pm 34.6 29.7 5.1 16 15.9 NNW 20 37 11 20 1013.9 1013.6 0.2
23/02:16pm 35.7 29.5 6.0 16 16.3 N 28 46 15 25 1014.0 1013.7 0.2
23/02:00pm 35.0 29.4 5.4 16 16.0 N 24 35 13 19 1014.3 1014.0 0.2
23/01:30pm 34.2 29.0 5.7 17 15.4 N 22 32 12 17 1014.7 1014.4 0.2
23/01:00pm 34.1 28.3 6.4 18 15.2 N 26 41 14 22 1015.0 1014.7 0.2
23/12:30pm 34.5 30.1 7.5 19 15.1 N 20 30 11 16 1015.4 1015.1 0.2
23/12:00pm 32.2 26.8 6.4 20 14.0 N 24 37 13 20 1015.9 1015.6 0.2
23/11:30am 31.6 26.0 7.3 22 13.3 N 26 35 14 19 1016.2 1015.9 0.2
23/11:00am 31.2 26.1 7.6 23 13.0 N 24 30 13 16 1016.6 1016.3 0.2
23/10:30am 30.2 25.5 9.1 27 11.8 NNE 24 30 13 16 1016.7 1016.4 0.2
23/10:00am 29.8 24.9 9.9 29 11.3 NNE 26 35 14 19 1016.9 1016.7 0.0
23/09:30am 28.3 24.3 10.5 33 10.1 ENE 22 30 12 16 1017.0 1016.8 0.0
23/09:00am 26.3 23.6 10.5 37 8.9 ENE 15 20 8 11 1017.8 1017.6 0.0
23/08:30am 25.4 23.3 11.2 41 8.1 NE 13 17 7 9 1018.2 1018.0 0.0
23/08:00am 21.6 20.6 12.2 55 5.3 NNE 9 15 5 8 1018.1 1017.9 0.0
23/07:30am 20.3 19.2 11.8 58 4.8 ENE 9 11 5 6 1017.8 1017.6 0.0
23/07:00am 19.6 17.1 10.9 57 4.8 ESE 15 24 8 13 1017.2 1017.0 0.0
23/06:30am 19.8 17.8 11.6 59 4.6 SE 13 15 7 8 1016.9 1016.7 0.0
23/06:00am 20.2 20.2 11.1 56 5.0 E 2 9 1 5 1016.4 1016.1 0.0
23/05:30am 20.3 18.4 11.8 58 4.8 N 13 19 7 10 1015.9 1015.6 0.0
23/05:00am 21.4 18.0 10.6 50 5.9 E 19 20 10 11 1015.4 1015.1 0.0
23/04:30am 21.0 18.6 10.2 50 5.9 ENE 13 15 7 8 1015.3 1015.0 0.0
23/04:00am 21.2 21.2 11.0 52 5.6 E 2 7 1 4 1015.3 1015.0 0.0
23/03:30am 22.5 21.5 10.9 48 6.5 ESE 7 11 4 6 1015.3 1015.0 0.0
23/03:00am 21.4 20.8 11.7 54 5.4 SE 6 7 3 4 1015.7 1015.4 0.0
23/02:30am 21.8 19.1 11.8 53 5.6 ESE 17 20 9 11 1016.3 1016.0 0.0
23/02:00am 21.6 20.3 12.5 56 5.2 ENE 11 17 6 9 1017.4 1017.2 0.0
23/01:30am 23.4 21.5 11.8 48 6.6 W 13 17 7 9 1018.2 1018.0 0.0
23/01:00am 23.5 20.1 11.2 46 6.9 WSW 20 28 11 15 1018.8 1018.6 0.0
23/12:30am 21.5 17.8 9.4 46 6.5 SW 19 26 10 14 1018.2 1018.0 0.0
23/12:00am 22.0 19.4 9.2 44 6.9 ENE 13 17 7 9 1016.9 1016.7 0.0
 
Date/Time
EDT
Temp
°C
App
Temp
°C
Dew
Point
Rel
Hum
%
Delta-T
°C
Wind Press
QNH
hPa
Press
MSL
hPa
Rain
since 9 am
mm
Dir
 
Spd
km/h
Gust
km/h
Spd
kts
Gust
kts
22/11:30pm 22.4 19.8 9.2 43 7.1 ENE 13 19 7 10 1016.8 1016.6 0.0

Other Formats:

Comma delimited format used in spreadsheet applications
http://www.bom.gov.au/fwo/IDN60801/IDN60801.95706.axf

JavaScript Object Notation format (JSON) in row-major order
http://www.bom.gov.au/fwo/IDN60801/IDN60801.95706.json